AEDT,Max TemperatureF,Mean TemperatureF,Min TemperatureF,Max Dew PointF,MeanDew PointF,Min DewpointF,Max Humidity, Mean Humidity, Min Humidity, Max Sea Level PressureIn, Mean Sea Level PressureIn, Min Sea Level PressureIn, Max VisibilityMiles, Mean VisibilityMiles, Min VisibilityMiles, Max Wind SpeedMPH, Mean Wind SpeedMPH, Max Gust SpeedMPH,PrecipitationIn, CloudCover, Events, WindDirDegrees
2013-10-1,91,70,49,63,51,43,83,54,13,29.95,29.77,29.62,19,7,4,33,8,54,0.08,6,Rain,315
2013-10-2,80,64,47,55,43,30,88,49,9,30.04,29.90,29.77,6,6,6,20,9,,0.00,3,,300
2013-10-3,68,57,46,52,43,34,93,63,20,30.13,29.90,29.71,12,6,3,24,9,31,0.24,4,Rain-Hail-Thunderstorm,270
2013-10-4,66,55,44,52,45,39,94,72,34,30.19,30.13,30.09,6,6,6,20,9,,0.01,4,,236
2013-10-5,85,63,41,56,42,25,100,63,5,30.13,29.97,29.83,6,6,1,20,5,,0.00,3,,320
2013-10-6,92,69,46,49,34,11,82,35,4,29.90,29.77,29.65,6,6,6,24,9,36,0.00,,,308
2013-10-7,69,60,52,61,50,39,83,57,37,29.94,29.81,29.65,16,7,6,23,12,34,0.00,4,,180
2013-10-8,69,60,50,54,51,48,94,70,37,30.12,29.97,29.89,19,7,6,18,6,,0.00,3,,178
2013-10-9,86,65,44,55,44,26,100,60,5,30.15,30.04,29.89,19,7,4,14,7,,0.00,0,Fog,319
2013-10-10,95,72,49,48,34,9,87,31,4,29.96,29.78,29.62,6,6,6,30,9,41,0.00,,,318
2013-10-11,71,66,57,61,55,41,88,67,35,30.01,29.86,29.59,6,6,5,28,13,39,0.00,6,Rain,140
2013-10-12,84,66,48,63,56,47,100,73,36,30.03,29.89,29.74,6,6,2,15,5,,0.00,,,41
2013-10-13,95,78,60,63,47,18,94,46,4,29.75,29.57,29.42,16,6,4,36,12,51,0.55,5,Rain,311
2013-10-14,66,58,51,63,48,37,100,65,25,30.14,29.90,29.65,16,6,3,21,12,,0.01,5,Rain,226
2013-10-15,75,59,43,46,36,19,81,47,7,30.22,30.13,30.06,19,6,4,17,9,,0.00,3,Fog,320
2013-10-16,82,62,42,48,40,28,93,46,8,30.14,30.02,29.89,9,6,6,17,6,,0.00,1,Fog,8
2013-10-17,93,72,50,47,39,10,76,29,5,30.01,29.79,29.65,6,6,2,29,12,44,0.00,4,,312
2013-10-18,69,60,50,50,41,25,87,47,14,30.36,30.23,30.04,6,6,3,24,14,33,0.00,6,Rain,145
2013-10-19,72,56,41,59,48,41,100,71,24,30.36,30.29,30.21,6,4,0,20,4,,0.00,,,86
2013-10-20,84,68,52,61,57,50,100,71,21,30.24,30.11,29.98,6,5,1,18,6,,0.00,,,43
2013-10-21,95,76,56,61,54,37,100,54,8,30.04,29.95,29.86,12,7,6,17,7,,0.00,1,Fog,10
2013-10-22,79,70,61,66,63,55,94,75,53,30.00,29.91,29.80,6,6,6,18,7,,0.00,4,,127
2013-10-23,98,81,62,64,52,28,88,46,5,29.83,29.71,29.59,6,6,6,31,12,48,0.00,3,,319
2013-10-24,82,68,54,57,41,16,100,42,5,30.15,29.91,29.83,19,8,6,26,11,39,0.00,3,Fog,268
2013-10-25,70,58,45,52,41,27,82,48,17,30.24,30.14,30.06,6,6,6,18,8,,0.00,4,,360
2013-10-26,73,61,49,54,46,32,94,61,18,30.21,30.12,30.06,6,6,6,22,8,,0.00,5,,221
2013-10-27,72,60,47,55,51,46,100,69,31,30.22,30.16,30.09,16,6,4,18,5,,0.00,2,Fog,77
2013-10-28,84,68,53,57,54,36,94,62,10,30.17,30.00,29.83,9,6,2,17,7,,0.00,4,,51
2013-10-29,89,74,58,63,57,48,100,73,20,29.99,29.78,29.65,12,6,1,31,12,50,0.87,6,Rain-Hail-Thunderstorm,226
2013-10-30,68,60,53,55,52,46,94,69,35,30.13,30.06,29.98,19,7,4,18,12,,0.00,4,Rain,192
2013-10-31,71,58,45,57,51,44,100,70,40,30.20,30.13,30.06,19,7,6,17,5,,0.00,2,Fog,105